sensor_id;sensor_type;location;lat;lon;timestamp;pressure;altitude;pressure_sealevel;temperature
72278;BMP280;61204;49.980;8.358;2023-03-01T00:02:01;101769.19;;;-0.25
72278;BMP280;61204;49.980;8.358;2023-03-01T00:04:27;101777.66;;;-0.32
72278;BMP280;61204;49.980;8.358;2023-03-01T00:06:55;101782.38;;;-0.27
72278;BMP280;61204;49.980;8.358;2023-03-01T00:09:21;101774.03;;;-0.29
72278;BMP280;61204;49.980;8.358;2023-03-01T00:11:49;101784.69;;;-0.20
72278;BMP280;61204;49.980;8.358;2023-03-01T00:14:15;101781.19;;;-0.26
72278;BMP280;61204;49.980;8.358;2023-03-01T00:16:43;101779.97;;;-0.25
72278;BMP280;61204;49.980;8.358;2023-03-01T00:19:14;101777.16;;;-0.31
72278;BMP280;61204;49.980;8.358;2023-03-01T00:21:43;101772.81;;;-0.28
72278;BMP280;61204;49.980;8.358;2023-03-01T00:24:09;101775.03;;;-0.27
72278;BMP280;61204;49.980;8.358;2023-03-01T00:26:37;101768.63;;;-0.29
72278;BMP280;61204;49.980;8.358;2023-03-01T00:29:03;101773.09;;;-0.26
72278;BMP280;61204;49.980;8.358;2023-03-01T00:31:31;101771.41;;;-0.23
72278;BMP280;61204;49.980;8.358;2023-03-01T00:33:59;101771.88;;;-0.25
72278;BMP280;61204;49.980;8.358;2023-03-01T00:36:29;101763.25;;;-0.29
72278;BMP280;61204;49.980;8.358;2023-03-01T00:38:57;101765.47;;;-0.28
72278;BMP280;61204;49.980;8.358;2023-03-01T00:41:23;101764.81;;;-0.37
72278;BMP280;61204;49.980;8.358;2023-03-01T00:43:51;101761.94;;;-0.49
72278;BMP280;61204;49.980;8.358;2023-03-01T00:46:19;101760.72;;;-0.47
72278;BMP280;61204;49.980;8.358;2023-03-01T00:48:48;101752.72;;;-0.42
72278;BMP280;61204;49.980;8.358;2023-03-01T00:51:16;101756.72;;;-0.37
72278;BMP280;61204;49.980;8.358;2023-03-01T00:53:45;101749.38;;;-0.37
72278;BMP280;61204;49.980;8.358;2023-03-01T00:56:13;101751.91;;;-0.48
72278;BMP280;61204;49.980;8.358;2023-03-01T00:58:39;101744.44;;;-0.53
72278;BMP280;61204;49.980;8.358;2023-03-01T01:01:09;101738.31;;;-0.54
72278;BMP280;61204;49.980;8.358;2023-03-01T01:03:52;101742.41;;;-0.58
72278;BMP280;61204;49.980;8.358;2023-03-01T01:06:28;101738.59;;;-0.52
72278;BMP280;61204;49.980;8.358;2023-03-01T01:09:09;101733.13;;;-0.57
72278;BMP280;61204;49.980;8.358;2023-03-01T01:11:46;101729.22;;;-0.56
72278;BMP280;61204;49.980;8.358;2023-03-01T01:14:15;101725.13;;;-0.52
72278;BMP280;61204;49.980;8.358;2023-03-01T01:16:42;101723.28;;;-0.45
72278;BMP280;61204;49.980;8.358;2023-03-01T01:19:08;101723.47;;;-0.49
72278;BMP280;61204;49.980;8.358;2023-03-01T01:21:36;101719.75;;;-0.52
72278;BMP280;61204;49.980;8.358;2023-03-01T01:24:02;101718.28;;;-0.53
72278;BMP280;61204;49.980;8.358;2023-03-01T01:26:32;101713.06;;;-0.56
72278;BMP280;61204;49.980;8.358;2023-03-01T01:29:00;101710.09;;;-0.58
72278;BMP280;61204;49.980;8.358;2023-03-01T01:31:31;101699.97;;;-0.63
72278;BMP280;61204;49.980;8.358;2023-03-01T01:34:00;101697.63;;;-0.56
72278;BMP280;61204;49.980;8.358;2023-03-01T01:36:28;101704.16;;;-0.62
72278;BMP280;61204;49.980;8.358;2023-03-01T01:38:54;101693.19;;;-0.59
72278;BMP280;61204;49.980;8.358;2023-03-01T01:41:21;101688.72;;;-0.62
72278;BMP280;61204;49.980;8.358;2023-03-01T01:46:54;101682.56;;;-0.47
72278;BMP280;61204;49.980;8.358;2023-03-01T01:52:14;101684.38;;;-0.59
72278;BMP280;61204;49.980;8.358;2023-03-01T01:54:51;101683.44;;;-0.56
72278;BMP280;61204;49.980;8.358;2023-03-01T01:57:44;101685.34;;;-0.42
72278;BMP280;61204;49.980;8.358;2023-03-01T02:00:22;101687.09;;;-0.39
72278;BMP280;61204;49.980;8.358;2023-03-01T02:02:52;101683.84;;;-0.43
72278;BMP280;61204;49.980;8.358;2023-03-01T02:08:16;101689.25;;;-0.43
72278;BMP280;61204;49.980;8.358;2023-03-01T02:10:45;101689.97;;;-0.42
72278;BMP280;61204;49.980;8.358;2023-03-01T02:13:14;101690.34;;;-0.35
72278;BMP280;61204;49.980;8.358;2023-03-01T02:15:40;101687.78;;;-0.29
72278;BMP280;61204;49.980;8.358;2023-03-01T02:18:10;101682.53;;;-0.33
72278;BMP280;61204;49.980;8.358;2023-03-01T02:23:31;101682.63;;;-0.27
72278;BMP280;61204;49.980;8.358;2023-03-01T02:26:03;101679.56;;;-0.35
72278;BMP280;61204;49.980;8.358;2023-03-01T02:28:58;101678.75;;;-0.41
72278;BMP280;61204;49.980;8.358;2023-03-01T02:31:24;101671.59;;;-0.29
72278;BMP280;61204;49.980;8.358;2023-03-01T02:34:14;101662.84;;;-0.24
72278;BMP280;61204;49.980;8.358;2023-03-01T02:36:48;101663.56;;;-0.23
72278;BMP280;61204;49.980;8.358;2023-03-01T02:39:22;101665.28;;;-0.26
72278;BMP280;61204;49.980;8.358;2023-03-01T02:42:01;101670.72;;;-0.20
72278;BMP280;61204;49.980;8.358;2023-03-01T02:44:29;101648.22;;;-0.17
72278;BMP280;61204;49.980;8.358;2023-03-01T02:47:00;101651.66;;;-0.17
72278;BMP280;61204;49.980;8.358;2023-03-01T02:49:29;101645.72;;;-0.21
72278;BMP280;61204;49.980;8.358;2023-03-01T02:55:10;101632.84;;;-0.32
72278;BMP280;61204;49.980;8.358;2023-03-01T02:57:41;101625.28;;;-0.28
72278;BMP280;61204;49.980;8.358;2023-03-01T03:00:14;101625.84;;;-0.23
72278;BMP280;61204;49.980;8.358;2023-03-01T03:02:48;101633.38;;;-0.28
72278;BMP280;61204;49.980;8.358;2023-03-01T03:05:21;101627.06;;;-0.25
72278;BMP280;61204;49.980;8.358;2023-03-01T03:07:51;101631.22;;;-0.23
72278;BMP280;61204;49.980;8.358;2023-03-01T03:10:20;101621.28;;;-0.17
72278;BMP280;61204;49.980;8.358;2023-03-01T03:12:54;101620.19;;;-0.26
72278;BMP280;61204;49.980;8.358;2023-03-01T03:15:32;101610.88;;;-0.25
72278;BMP280;61204;49.980;8.358;2023-03-01T03:18:01;101617.28;;;-0.22
72278;BMP280;61204;49.980;8.358;2023-03-01T03:20:29;101617.34;;;-0.16
72278;BMP280;61204;49.980;8.358;2023-03-01T03:22:55;101614.41;;;-0.18
72278;BMP280;61204;49.980;8.358;2023-03-01T03:25:23;101609.53;;;-0.14
72278;BMP280;61204;49.980;8.358;2023-03-01T03:27:51;101602.44;;;-0.12
72278;BMP280;61204;49.980;8.358;2023-03-01T03:30:21;101600.25;;;-0.13
72278;BMP280;61204;49.980;8.358;2023-03-01T03:32:56;101602.19;;;-0.14
72278;BMP280;61204;49.980;8.358;2023-03-01T03:35:28;101600.28;;;-0.08
72278;BMP280;61204;49.980;8.358;2023-03-01T03:37:56;101598.63;;;-0.05
72278;BMP280;61204;49.980;8.358;2023-03-01T03:40:29;101604.28;;;-0.03
72278;BMP280;61204;49.980;8.358;2023-03-01T03:43:03;101595.38;;;-0.09
72278;BMP280;61204;49.980;8.358;2023-03-01T03:45:35;101591.06;;;-0.01
72278;BMP280;61204;49.980;8.358;2023-03-01T03:48:01;101596.44;;;-0.01
72278;BMP280;61204;49.980;8.358;2023-03-01T03:50:30;101594.50;;;-0.01
72278;BMP280;61204;49.980;8.358;2023-03-01T03:52:55;101581.50;;;-0.02
72278;BMP280;61204;49.980;8.358;2023-03-01T03:55:21;101573.69;;;0.00
72278;BMP280;61204;49.980;8.358;2023-03-01T03:57:47;101575.81;;;-0.04
72278;BMP280;61204;49.980;8.358;2023-03-01T04:00:20;101573.81;;;-0.09
72278;BMP280;61204;49.980;8.358;2023-03-01T04:02:48;101576.25;;;-0.11
72278;BMP280;61204;49.980;8.358;2023-03-01T04:05:17;101577.72;;;-0.10
72278;BMP280;61204;49.980;8.358;2023-03-01T04:07:44;101582.63;;;-0.09
72278;BMP280;61204;49.980;8.358;2023-03-01T04:10:11;101571.31;;;-0.13
72278;BMP280;61204;49.980;8.358;2023-03-01T04:12:42;101575.69;;;-0.15
72278;BMP280;61204;49.980;8.358;2023-03-01T04:15:09;101577.66;;;-0.16
72278;BMP280;61204;49.980;8.358;2023-03-01T04:20:12;101581.84;;;-0.15
72278;BMP280;61204;49.980;8.358;2023-03-01T04:22:49;101584.59;;;-0.09
72278;BMP280;61204;49.980;8.358;2023-03-01T04:25:17;101580.13;;;-0.12
72278;BMP280;61204;49.980;8.358;2023-03-01T04:27:43;101590.69;;;-0.14
72278;BMP280;61204;49.980;8.358;2023-03-01T04:30:08;101585.47;;;-0.18
72278;BMP280;61204;49.980;8.358;2023-03-01T04:32:36;101588.84;;;-0.23
72278;BMP280;61204;49.980;8.358;2023-03-01T04:35:02;101584.75;;;-0.18
72278;BMP280;61204;49.980;8.358;2023-03-01T04:37:28;101585.41;;;-0.23
72278;BMP280;61204;49.980;8.358;2023-03-01T04:39:54;101589.81;;;-0.26
72278;BMP280;61204;49.980;8.358;2023-03-01T04:42:20;101587.03;;;-0.32
72278;BMP280;61204;49.980;8.358;2023-03-01T04:44:45;101585.59;;;-0.27
72278;BMP280;61204;49.980;8.358;2023-03-01T04:47:11;101573.09;;;-0.30
72278;BMP280;61204;49.980;8.358;2023-03-01T04:49:37;101577.25;;;-0.29
72278;BMP280;61204;49.980;8.358;2023-03-01T04:52:03;101578.25;;;-0.27
72278;BMP280;61204;49.980;8.358;2023-03-01T04:54:33;101578.72;;;-0.28
72278;BMP280;61204;49.980;8.358;2023-03-01T04:57:01;101575.50;;;-0.32
72278;BMP280;61204;49.980;8.358;2023-03-01T04:59:28;101568.06;;;-0.37
72278;BMP280;61204;49.980;8.358;2023-03-01T05:01:54;101576.28;;;-0.46
72278;BMP280;61204;49.980;8.358;2023-03-01T05:04:22;101579.44;;;-0.48
72278;BMP280;61204;49.980;8.358;2023-03-01T05:06:49;101570.81;;;-0.52
72278;BMP280;61204;49.980;8.358;2023-03-01T05:09:15;101574.16;;;-0.57
72278;BMP280;61204;49.980;8.358;2023-03-01T05:11:40;101569.06;;;-0.55
72278;BMP280;61204;49.980;8.358;2023-03-01T05:14:07;101568.88;;;-0.52
72278;BMP280;61204;49.980;8.358;2023-03-01T05:16:34;101569.88;;;-0.49
72278;BMP280;61204;49.980;8.358;2023-03-01T05:19:01;101572.09;;;-0.47
72278;BMP280;61204;49.980;8.358;2023-03-01T05:21:36;101579.63;;;-0.52
72278;BMP280;61204;49.980;8.358;2023-03-01T05:24:24;101578.16;;;-0.53
72278;BMP280;61204;49.980;8.358;2023-03-01T05:26:50;101570.13;;;-0.47
72278;BMP280;61204;49.980;8.358;2023-03-01T05:29:19;101574.59;;;-0.44
72278;BMP280;61204;49.980;8.358;2023-03-01T05:32:08;101565.44;;;-0.52
72278;BMP280;61204;49.980;8.358;2023-03-01T05:34:35;101572.84;;;-0.47
72278;BMP280;61204;49.980;8.358;2023-03-01T05:37:01;101570.13;;;-0.47
72278;BMP280;61204;49.980;8.358;2023-03-01T05:39:28;101565.97;;;-0.48
72278;BMP280;61204;49.980;8.358;2023-03-01T05:41:55;101563.81;;;-0.44
72278;BMP280;61204;49.980;8.358;2023-03-01T05:44:24;101563.13;;;-0.39
72278;BMP280;61204;49.980;8.358;2023-03-01T05:46:50;101564.06;;;-0.42
72278;BMP280;61204;49.980;8.358;2023-03-01T05:49:17;101563.63;;;-0.40
72278;BMP280;61204;49.980;8.358;2023-03-01T05:51:46;101564.88;;;-0.36
72278;BMP280;61204;49.980;8.358;2023-03-01T05:54:18;101558.22;;;-0.40
72278;BMP280;61204;49.980;8.358;2023-03-01T05:56:46;101565.16;;;-0.34
72278;BMP280;61204;49.980;8.358;2023-03-01T05:59:12;101566.66;;;-0.33
72278;BMP280;61204;49.980;8.358;2023-03-01T06:01:39;101575.09;;;-0.25
72278;BMP280;61204;49.980;8.358;2023-03-01T06:04:05;101568.28;;;-0.20
72278;BMP280;61204;49.980;8.358;2023-03-01T06:06:34;101560.19;;;-0.20
72278;BMP280;61204;49.980;8.358;2023-03-01T06:09:02;101561.47;;;-0.16
72278;BMP280;61204;49.980;8.358;2023-03-01T06:11:29;101571.06;;;-0.15
72278;BMP280;61204;49.980;8.358;2023-03-01T06:14:01;101568.63;;;-0.13
72278;BMP280;61204;49.980;8.358;2023-03-01T06:16:27;101570.19;;;-0.06
72278;BMP280;61204;49.980;8.358;2023-03-01T06:18:53;101567.31;;;0.03
72278;BMP280;61204;49.980;8.358;2023-03-01T06:21:18;101571.00;;;0.00
72278;BMP280;61204;49.980;8.358;2023-03-01T06:23:44;101570.50;;;0.02
72278;BMP280;61204;49.980;8.358;2023-03-01T06:26:09;101580.19;;;0.14
72278;BMP280;61204;49.980;8.358;2023-03-01T06:28:35;101571.97;;;0.23
72278;BMP280;61204;49.980;8.358;2023-03-01T06:31:01;101569.59;;;0.31
72278;BMP280;61204;49.980;8.358;2023-03-01T06:33:27;101568.38;;;0.37
72278;BMP280;61204;49.980;8.358;2023-03-01T06:35:55;101562.03;;;0.40
72278;BMP280;61204;49.980;8.358;2023-03-01T06:38:21;101554.88;;;0.37
72278;BMP280;61204;49.980;8.358;2023-03-01T06:40:52;101561.50;;;0.36
72278;BMP280;61204;49.980;8.358;2023-03-01T06:43:21;101551.94;;;0.35
72278;BMP280;61204;49.980;8.358;2023-03-01T06:45:48;101555.09;;;0.34
72278;BMP280;61204;49.980;8.358;2023-03-01T06:48:14;101552.41;;;0.34
72278;BMP280;61204;49.980;8.358;2023-03-01T06:50:40;101554.13;;;0.31
72278;BMP280;61204;49.980;8.358;2023-03-01T06:53:05;101555.38;;;0.36
72278;BMP280;61204;49.980;8.358;2023-03-01T06:55:31;101554.34;;;0.33
72278;BMP280;61204;49.980;8.358;2023-03-01T06:58:00;101552.91;;;0.32
72278;BMP280;61204;49.980;8.358;2023-03-01T07:00:27;101552.19;;;0.37
72278;BMP280;61204;49.980;8.358;2023-03-01T07:02:54;101552.19;;;0.37
72278;BMP280;61204;49.980;8.358;2023-03-01T07:05:23;101551.00;;;0.38
72278;BMP280;61204;49.980;8.358;2023-03-01T07:07:48;101561.00;;;0.38
72278;BMP280;61204;49.980;8.358;2023-03-01T07:10:13;101558.09;;;0.41
72278;BMP280;61204;49.980;8.358;2023-03-01T07:12:39;101561.09;;;0.43
72278;BMP280;61204;49.980;8.358;2023-03-01T07:15:06;101566.78;;;0.51
72278;BMP280;61204;49.980;8.358;2023-03-01T07:17:36;101556.59;;;0.61
72278;BMP280;61204;49.980;8.358;2023-03-01T07:20:02;101560.84;;;0.73
72278;BMP280;61204;49.980;8.358;2023-03-01T07:22:28;101557.53;;;0.89
72278;BMP280;61204;49.980;8.358;2023-03-01T07:24:53;101552.50;;;1.08
72278;BMP280;61204;49.980;8.358;2023-03-01T07:27:19;101554.81;;;1.27
72278;BMP280;61204;49.980;8.358;2023-03-01T07:29:44;101554.88;;;1.43
72278;BMP280;61204;49.980;8.358;2023-03-01T07:32:12;101558.91;;;1.59
72278;BMP280;61204;49.980;8.358;2023-03-01T07:34:37;101554.78;;;1.81
72278;BMP280;61204;49.980;8.358;2023-03-01T07:37:03;101546.72;;;1.97
72278;BMP280;61204;49.980;8.358;2023-03-01T07:39:28;101553.38;;;2.13
72278;BMP280;61204;49.980;8.358;2023-03-01T07:41:54;101563.00;;;2.48
72278;BMP280;61204;49.980;8.358;2023-03-01T07:44:19;101547.97;;;2.69
72278;BMP280;61204;49.980;8.358;2023-03-01T07:46:45;101549.13;;;3.02
72278;BMP280;61204;49.980;8.358;2023-03-01T07:49:10;101544.19;;;3.01
72278;BMP280;61204;49.980;8.358;2023-03-01T07:51:36;101547.28;;;3.33
72278;BMP280;61204;49.980;8.358;2023-03-01T07:54:04;101553.84;;;3.54
72278;BMP280;61204;49.980;8.358;2023-03-01T07:56:29;101550.44;;;3.95
72278;BMP280;61204;49.980;8.358;2023-03-01T07:58:55;101553.59;;;3.99
72278;BMP280;61204;49.980;8.358;2023-03-01T08:01:23;101546.13;;;4.41
72278;BMP280;61204;49.980;8.358;2023-03-01T08:03:49;101549.13;;;4.62
72278;BMP280;61204;49.980;8.358;2023-03-01T08:06:15;101552.78;;;4.70
72278;BMP280;61204;49.980;8.358;2023-03-01T08:08:42;101549.06;;;4.43
72278;BMP280;61204;49.980;8.358;2023-03-01T08:11:10;101548.13;;;4.89
72278;BMP280;61204;49.980;8.358;2023-03-01T08:13:38;101549.91;;;5.06
72278;BMP280;61204;49.980;8.358;2023-03-01T08:16:04;101544.13;;;5.34
72278;BMP280;61204;49.980;8.358;2023-03-01T08:18:41;101553.41;;;5.25
72278;BMP280;61204;49.980;8.358;2023-03-01T08:21:11;101542.16;;;5.34
72278;BMP280;61204;49.980;8.358;2023-03-01T08:23:40;101543.03;;;5.05
72278;BMP280;61204;49.980;8.358;2023-03-01T08:26:10;101535.53;;;5.11
72278;BMP280;61204;49.980;8.358;2023-03-01T08:28:44;101546.94;;;5.28
72278;BMP280;61204;49.980;8.358;2023-03-01T08:31:17;101540.44;;;5.12
72278;BMP280;61204;49.980;8.358;2023-03-01T08:33:49;101531.63;;;5.25
72278;BMP280;61204;49.980;8.358;2023-03-01T08:36:20;101541.88;;;5.89
72278;BMP280;61204;49.980;8.358;2023-03-01T08:38:48;101545.44;;;6.42
72278;BMP280;61204;49.980;8.358;2023-03-01T08:41:14;101534.78;;;6.71
72278;BMP280;61204;49.980;8.358;2023-03-01T08:43:39;101534.97;;;6.33
72278;BMP280;61204;49.980;8.358;2023-03-01T08:46:05;101527.00;;;6.75
72278;BMP280;61204;49.980;8.358;2023-03-01T08:48:31;101521.31;;;7.33
72278;BMP280;61204;49.980;8.358;2023-03-01T08:50:56;101520.34;;;7.10
72278;BMP280;61204;49.980;8.358;2023-03-01T08:53:22;101519.13;;;6.98
72278;BMP280;61204;49.980;8.358;2023-03-01T08:55:47;101517.53;;;7.36
72278;BMP280;61204;49.980;8.358;2023-03-01T08:58:13;101521.63;;;7.64
72278;BMP280;61204;49.980;8.358;2023-03-01T09:00:38;101514.41;;;6.98
72278;BMP280;61204;49.980;8.358;2023-03-01T09:03:06;101514.53;;;7.27
72278;BMP280;61204;49.980;8.358;2023-03-01T09:05:32;101504.78;;;7.18
72278;BMP280;61204;49.980;8.358;2023-03-01T09:07:59;101510.13;;;7.58
72278;BMP280;61204;49.980;8.358;2023-03-01T09:10:24;101498.16;;;8.10
72278;BMP280;61204;49.980;8.358;2023-03-01T09:12:50;101501.56;;;8.03
72278;BMP280;61204;49.980;8.358;2023-03-01T09:15:16;101489.75;;;8.08
72278;BMP280;61204;49.980;8.358;2023-03-01T09:17:42;101494.09;;;8.04
72278;BMP280;61204;49.980;8.358;2023-03-01T09:20:08;101492.34;;;8.94
72278;BMP280;61204;49.980;8.358;2023-03-01T09:22:36;101496.81;;;8.68
72278;BMP280;61204;49.980;8.358;2023-03-01T09:25:04;101494.38;;;9.01
72278;BMP280;61204;49.980;8.358;2023-03-01T09:27:30;101493.28;;;9.04
72278;BMP280;61204;49.980;8.358;2023-03-01T09:29:55;101492.53;;;9.04
72278;BMP280;61204;49.980;8.358;2023-03-01T09:32:23;101484.03;;;9.68
72278;BMP280;61204;49.980;8.358;2023-03-01T09:34:49;101476.38;;;9.51
72278;BMP280;61204;49.980;8.358;2023-03-01T09:37:28;101481.19;;;8.84
72278;BMP280;61204;49.980;8.358;2023-03-01T09:39:54;101472.53;;;9.39
72278;BMP280;61204;49.980;8.358;2023-03-01T09:42:20;101472.69;;;9.87
72278;BMP280;61204;49.980;8.358;2023-03-01T09:47:30;101476.44;;;8.85
72278;BMP280;61204;49.980;8.358;2023-03-01T09:55:16;101468.72;;;9.58
72278;BMP280;61204;49.980;8.358;2023-03-01T09:57:53;101468.16;;;9.67
72278;BMP280;61204;49.980;8.358;2023-03-01T10:00:42;101471.97;;;9.56
72278;BMP280;61204;49.980;8.358;2023-03-01T10:09:05;101460.44;;;9.12
72278;BMP280;61204;49.980;8.358;2023-03-01T10:11:39;101453.88;;;9.76
72278;BMP280;61204;49.980;8.358;2023-03-01T10:19:39;101442.66;;;10.20
72278;BMP280;61204;49.980;8.358;2023-03-01T10:22:15;101449.63;;;10.53
72278;BMP280;61204;49.980;8.358;2023-03-01T10:24:51;101439.28;;;10.37
72278;BMP280;61204;49.980;8.358;2023-03-01T10:27:22;101447.28;;;10.82
72278;BMP280;61204;49.980;8.358;2023-03-01T10:29:55;101441.56;;;11.90
72278;BMP280;61204;49.980;8.358;2023-03-01T10:32:37;101427.47;;;11.59
72278;BMP280;61204;49.980;8.358;2023-03-01T10:35:17;101432.28;;;11.85
72278;BMP280;61204;49.980;8.358;2023-03-01T10:40:55;101422.44;;;10.00
72278;BMP280;61204;49.980;8.358;2023-03-01T10:43:40;101421.53;;;10.45
72278;BMP280;61204;49.980;8.358;2023-03-01T10:46:29;101410.28;;;11.68
72278;BMP280;61204;49.980;8.358;2023-03-01T10:49:15;101417.00;;;10.65
72278;BMP280;61204;49.980;8.358;2023-03-01T10:51:51;101418.41;;;10.74
72278;BMP280;61204;49.980;8.358;2023-03-01T10:54:22;101417.16;;;10.75
72278;BMP280;61204;49.980;8.358;2023-03-01T10:57:03;101404.03;;;9.85
72278;BMP280;61204;49.980;8.358;2023-03-01T10:59:36;101409.34;;;11.13
72278;BMP280;61204;49.980;8.358;2023-03-01T11:02:15;101400.25;;;12.15
72278;BMP280;61204;49.980;8.358;2023-03-01T11:07:58;101402.72;;;12.20
72278;BMP280;61204;49.980;8.358;2023-03-01T11:10:29;101390.31;;;12.02
72278;BMP280;61204;49.980;8.358;2023-03-01T11:13:07;101395.13;;;11.84
72278;BMP280;61204;49.980;8.358;2023-03-01T11:16:01;101374.03;;;10.93
72278;BMP280;61204;49.980;8.358;2023-03-01T11:18:32;101385.28;;;11.47
72278;BMP280;61204;49.980;8.358;2023-03-01T11:20:58;101365.72;;;11.25
72278;BMP280;61204;49.980;8.358;2023-03-01T11:23:27;101369.38;;;11.28
72278;BMP280;61204;49.980;8.358;2023-03-01T11:25:58;101363.63;;;11.51
72278;BMP280;61204;49.980;8.358;2023-03-01T11:28:29;101374.63;;;12.85
72278;BMP280;61204;49.980;8.358;2023-03-01T11:31:08;101359.94;;;12.64
72278;BMP280;61204;49.980;8.358;2023-03-01T11:33:44;101353.06;;;13.69
72278;BMP280;61204;49.980;8.358;2023-03-01T11:36:35;101343.81;;;13.35
72278;BMP280;61204;49.980;8.358;2023-03-01T11:42:13;101337.66;;;11.61
72278;BMP280;61204;49.980;8.358;2023-03-01T11:44:50;101349.25;;;11.42
72278;BMP280;61204;49.980;8.358;2023-03-01T11:50:19;101331.22;;;11.32
72278;BMP280;61204;49.980;8.358;2023-03-01T12:04:08;101305.06;;;12.66
72278;BMP280;61204;49.980;8.358;2023-03-01T12:06:52;101310.72;;;12.68
72278;BMP280;61204;49.980;8.358;2023-03-01T12:09:35;101307.38;;;12.23
72278;BMP280;61204;49.980;8.358;2023-03-01T12:21:17;101284.94;;;13.40
72278;BMP280;61204;49.980;8.358;2023-03-01T12:45:51;101234.03;;;15.79
72278;BMP280;61204;49.980;8.358;2023-03-01T12:51:31;101225.72;;;14.87
72278;BMP280;61204;49.980;8.358;2023-03-01T12:54:01;101212.13;;;14.79
72278;BMP280;61204;49.980;8.358;2023-03-01T12:56:39;101205.41;;;14.82
72278;BMP280;61204;49.980;8.358;2023-03-01T13:02:15;101202.56;;;14.92
72278;BMP280;61204;49.980;8.358;2023-03-01T13:07:53;101182.31;;;13.40
72278;BMP280;61204;49.980;8.358;2023-03-01T13:10:36;101201.44;;;13.79
72278;BMP280;61204;49.980;8.358;2023-03-01T13:13:12;101188.47;;;13.60
72278;BMP280;61204;49.980;8.358;2023-03-01T13:15:47;101188.88;;;14.94
72278;BMP280;61204;49.980;8.358;2023-03-01T13:23:13;101176.13;;;13.70
72278;BMP280;61204;49.980;8.358;2023-03-01T13:38:57;101153.84;;;14.09
72278;BMP280;61204;49.980;8.358;2023-03-01T13:46:53;101143.84;;;14.92
72278;BMP280;61204;49.980;8.358;2023-03-01T13:50:19;101135.84;;;13.15
72278;BMP280;61204;49.980;8.358;2023-03-01T13:55:18;101144.50;;;13.93
72278;BMP280;61204;49.980;8.358;2023-03-01T14:01:25;101131.09;;;11.99
72278;BMP280;61204;49.980;8.358;2023-03-01T14:03:56;101124.16;;;12.08
72278;BMP280;61204;49.980;8.358;2023-03-01T14:06:24;101141.97;;;12.94
72278;BMP280;61204;49.980;8.358;2023-03-01T14:09:01;101132.69;;;12.12
72278;BMP280;61204;49.980;8.358;2023-03-01T14:11:35;101127.81;;;12.59
72278;BMP280;61204;49.980;8.358;2023-03-01T14:17:16;101130.78;;;12.05
72278;BMP280;61204;49.980;8.358;2023-03-01T14:19:55;101148.53;;;11.85
72278;BMP280;61204;49.980;8.358;2023-03-01T14:22:27;101135.75;;;12.36
72278;BMP280;61204;49.980;8.358;2023-03-01T14:25:05;101151.78;;;11.64
72278;BMP280;61204;49.980;8.358;2023-03-01T14:27:44;101141.78;;;11.95
72278;BMP280;61204;49.980;8.358;2023-03-01T14:30:11;101141.28;;;11.43
72278;BMP280;61204;49.980;8.358;2023-03-01T14:32:52;101147.91;;;11.13
72278;BMP280;61204;49.980;8.358;2023-03-01T14:35:26;101137.53;;;11.21
72278;BMP280;61204;49.980;8.358;2023-03-01T14:38:00;101122.97;;;11.55
72278;BMP280;61204;49.980;8.358;2023-03-01T14:40:33;101131.44;;;11.77
72278;BMP280;61204;49.980;8.358;2023-03-01T14:43:02;101118.22;;;12.21
72278;BMP280;61204;49.980;8.358;2023-03-01T14:45:36;101124.97;;;11.91
72278;BMP280;61204;49.980;8.358;2023-03-01T14:48:05;101118.84;;;12.49
72278;BMP280;61204;49.980;8.358;2023-03-01T14:50:35;101123.59;;;12.68
72278;BMP280;61204;49.980;8.358;2023-03-01T14:53:16;101117.28;;;13.15
72278;BMP280;61204;49.980;8.358;2023-03-01T14:55:49;101116.41;;;13.23
72278;BMP280;61204;49.980;8.358;2023-03-01T14:58:21;101115.66;;;12.23
72278;BMP280;61204;49.980;8.358;2023-03-01T15:00:53;101108.69;;;12.22
72278;BMP280;61204;49.980;8.358;2023-03-01T15:03:38;101110.59;;;11.10
72278;BMP280;61204;49.980;8.358;2023-03-01T15:06:17;101101.78;;;11.65
72278;BMP280;61204;49.980;8.358;2023-03-01T15:08:46;101104.53;;;11.75
72278;BMP280;61204;49.980;8.358;2023-03-01T15:11:29;101094.47;;;12.07
72278;BMP280;61204;49.980;8.358;2023-03-01T15:13:57;101095.63;;;11.94
72278;BMP280;61204;49.980;8.358;2023-03-01T15:16:30;101084.97;;;11.61
72278;BMP280;61204;49.980;8.358;2023-03-01T15:19:03;101099.38;;;11.89
72278;BMP280;61204;49.980;8.358;2023-03-01T15:21:35;101105.25;;;11.12
72278;BMP280;61204;49.980;8.358;2023-03-01T15:26:44;101102.66;;;11.41
72278;BMP280;61204;49.980;8.358;2023-03-01T15:29:23;101107.16;;;10.92
72278;BMP280;61204;49.980;8.358;2023-03-01T15:32:05;101109.47;;;11.13
72278;BMP280;61204;49.980;8.358;2023-03-01T15:34:51;101094.53;;;10.62
72278;BMP280;61204;49.980;8.358;2023-03-01T15:40:32;101115.59;;;10.17
72278;BMP280;61204;49.980;8.358;2023-03-01T15:43:05;101109.31;;;10.24
72278;BMP280;61204;49.980;8.358;2023-03-01T15:46:17;101116.72;;;9.97
72278;BMP280;61204;49.980;8.358;2023-03-01T15:48:55;101104.97;;;9.79
72278;BMP280;61204;49.980;8.358;2023-03-01T15:51:28;101114.03;;;10.14
72278;BMP280;61204;49.980;8.358;2023-03-01T15:53:58;101119.94;;;10.03
72278;BMP280;61204;49.980;8.358;2023-03-01T15:56:30;101112.97;;;9.85
72278;BMP280;61204;49.980;8.358;2023-03-01T15:58:59;101119.59;;;9.74
72278;BMP280;61204;49.980;8.358;2023-03-01T16:01:29;101116.59;;;9.87
72278;BMP280;61204;49.980;8.358;2023-03-01T16:03:55;101109.75;;;9.38
72278;BMP280;61204;49.980;8.358;2023-03-01T16:06:23;101103.25;;;9.26
72278;BMP280;61204;49.980;8.358;2023-03-01T16:08:48;101112.66;;;9.00
72278;BMP280;61204;49.980;8.358;2023-03-01T16:11:16;101104.50;;;8.85
72278;BMP280;61204;49.980;8.358;2023-03-01T16:13:44;101111.59;;;8.95
72278;BMP280;61204;49.980;8.358;2023-03-01T16:16:11;101112.94;;;9.27
72278;BMP280;61204;49.980;8.358;2023-03-01T16:18:41;101111.03;;;9.05
72278;BMP280;61204;49.980;8.358;2023-03-01T16:21:16;101109.59;;;8.88
72278;BMP280;61204;49.980;8.358;2023-03-01T16:23:46;101119.13;;;8.72
72278;BMP280;61204;49.980;8.358;2023-03-01T16:26:12;101122.44;;;8.32
72278;BMP280;61204;49.980;8.358;2023-03-01T16:28:39;101122.44;;;8.17
72278;BMP280;61204;49.980;8.358;2023-03-01T16:31:06;101131.00;;;8.06
72278;BMP280;61204;49.980;8.358;2023-03-01T16:33:32;101115.50;;;7.85
72278;BMP280;61204;49.980;8.358;2023-03-01T16:35:59;101116.81;;;7.92
72278;BMP280;61204;49.980;8.358;2023-03-01T16:38:27;101114.19;;;7.71
72278;BMP280;61204;49.980;8.358;2023-03-01T16:40:53;101116.00;;;7.61